Buoy 41936

sailwx.info

Track history (hours):
 
Tides and Currents Weather Stations Pressure Air Temp Water Temp Dewpoint Dewpoint Depression Visibility Wind Speed Wind Dir Waves Ship Positions

Drifting buoy 41936

Last reported at 2015-Aug-28 08:00 UTC. Time now 2015-Aug-28 09:38 UTC.
Position N 32°54' W 053°12'.

Barometer 1015.3 mb

Date/timePositionNaut miles runAvg speedWind from/ knotsBaromVisibWave heightAir tempDewpointWater temp
2015-Aug-28 08:00N 32°54' W 053°12'2 1.9 1015.3
2015-Aug-28 07:00N 32°53' W 053°14'3 3.5 1015.2
2015-Aug-28 06:00N 32°52' W 053°10'1 0.1 1015.5
2015-Aug-28 01:00N 32°52' W 053°09'1 0.5 1016.2
2015-Aug-28 00:00N 32°53' W 053°08'2 2.1 1016.0
2015-Aug-27 23:00N 32°53' W 053°06'1 0.3 1015.2
2015-Aug-27 20:00N 32°54' W 053°06'2 0.8 1014.4
2015-Aug-27 17:00N 32°56' W 053°05'0 0.1 1014.9
2015-Aug-27 16:00N 32°56' W 053°05'1 0.1 1015.1
2015-Aug-27 10:00N 32°57' W 053°05'0 0.0 1014.7
2015-Aug-27 09:00N 32°57' W 053°05'3 0.4 1014.2
2015-Aug-27 02:00N 32°57' W 053°02'1 1.3 1015.0
2015-Aug-27 01:00N 32°57' W 053°00'1 0.7 1015.3
2015-Aug-27 00:00N 32°58' W 053°00'2 0.6 1015.5
2015-Aug-26 20:00N 33°00' W 052°59'1 0.5 1014.7
2015-Aug-26 18:00N 33°01' W 052°59'1 0.8 1015.3
2015-Aug-26 17:00N 33°02' W 052°60'1 0.4 1015.5
2015-Aug-26 14:00N 33°03' W 053°00'0 0.4 1016.1
2015-Aug-26 13:00N 33°03' W 053°00'1 0.2 1015.9
2015-Aug-26 09:00N 33°03' W 053°01'2 0.5 1015.5
2015-Aug-26 05:00N 33°03' W 052°59'3 0.3 1016.5
2015-Aug-25 20:00N 33°06' W 052°58'1 0.2 1017.9
2015-Aug-25 15:00N 33°07' W 052°59'2 0.3 1019.2
2015-Aug-25 09:00N 33°06' W 052°57'1 0.2 1018.5
2015-Aug-25 06:00N 33°06' W 052°57'1 0.7 1018.7
2015-Aug-25 05:00N 33°07' W 052°57'1 0.2 1019.2
2015-Aug-25 01:00N 33°07' W 052°56'0 0.2 1020.2
2015-Aug-25 00:00N 33°07' W 052°56'1 0.3 1020.1
2015-Aug-24 21:00N 33°08' W 052°56'0 0.2 1019.4
2015-Aug-24 19:00N 33°08' W 052°55'1 0.1 1019.3
2015-Aug-24 12:00N 33°07' W 052°54'0 0.0 1020.9
2015-Aug-24 11:00N 33°07' W 052°54'2 0.5 1020.7
2015-Aug-24 08:00N 33°07' W 052°53'3 0.2 1019.8
2015-Aug-23 21:00N 33°08' W 052°49'0 0.3 1020.7
2015-Aug-23 20:00N 33°08' W 052°49'0 0.2 1020.5
2015-Aug-23 19:00N 33°08' W 052°49'1 0.4 1020.5
2015-Aug-23 17:00N 33°08' W 052°48'2 0.7 1020.7
2015-Aug-23 14:00N 33°08' W 052°46'1 0.2 1021.6
2015-Aug-23 10:00N 33°09' W 052°45'1 0.2 1020.9
2015-Aug-23 07:00N 33°09' W 052°44'2 0.3 1019.7
2015-Aug-23 01:00N 33°08' W 052°42'2 2.3 1021.5
2015-Aug-23 00:00N 33°09' W 052°40'1 1.0 1021.4
2015-Aug-22 23:00N 33°09' W 052°41'0 0.2 1020.9
2015-Aug-22 21:00N 33°09' W 052°41'0 0.2 1020.3
2015-Aug-22 20:00N 33°09' W 052°41'1 0.3 1020.2
2015-Aug-22 17:00N 33°09' W 052°39'0 0.0 1020.7
2015-Aug-22 16:00N 33°09' W 052°39'3 0.6 1020.9
2015-Aug-22 11:00N 33°10' W 052°36'1 0.3 1020.4
2015-Aug-22 08:00N 33°10' W 052°35'2 0.3 1019.3
2015-Aug-22 02:00N 33°11' W 052°33'7 0.5 1020.8
2015-Aug-21 13:00N 33°14' W 052°26'1 0.8 1020.4
2015-Aug-21 12:00N 33°13' W 052°26'0 0.2 1020.2
2015-Aug-21 10:00N 33°13' W 052°26'0 0.4 1019.6
2015-Aug-21 09:00N 33°13' W 052°26'1 0.7 1019.3
2015-Aug-21 08:00N 33°14' W 052°25'0 0.2 1018.8
2015-Aug-21 06:00N 33°14' W 052°24'1 1.2 1019.0
2015-Aug-21 05:00N 33°14' W 052°23'1 0.2 1019.2
2015-Aug-21 01:00N 33°14' W 052°22'1 0.7 1019.7
2015-Aug-21 00:00N 33°14' W 052°22'1 1.0 1019.6
2015-Aug-20 23:00N 33°14' W 052°21'1 0.3 1019.4
2015-Aug-20 21:00N 33°14' W 052°20'0 0.0 1018.1
2015-Aug-20 20:00N 33°14' W 052°20'2 1.6 1018.4
2015-Aug-20 19:00N 33°15' W 052°18'2 0.6 1017.7
2015-Aug-20 15:00N 33°17' W 052°16'3 0.6 1018.3
2015-Aug-20 10:00N 33°20' W 052°17'1 0.3 1018.1
2015-Aug-20 08:00N 33°20' W 052°18'1 0.4 1017.3
2015-Aug-20 06:00N 33°19' W 052°17'0 0.0 1017.2
2015-Aug-20 05:00N 33°19' W 052°17'5 0.5 1017.2
2015-Aug-19 20:00N 33°23' W 052°13'3 0.8 1017.2
2015-Aug-19 16:00N 33°26' W 052°13'3 0.5 1018.7
2015-Aug-19 10:00N 33°28' W 052°14'1 0.2 1018.7
2015-Aug-19 06:00N 33°28' W 052°13'9 0.7 1018.3
2015-Aug-18 17:00N 33°37' W 052°12'0 0.0 1018.3
2015-Aug-18 16:00N 33°37' W 052°12'2 0.9 1018.8
2015-Aug-18 14:00N 33°38' W 052°14'0 0.1 1019.2
2015-Aug-18 10:00N 33°38' W 052°14'0 0.0 1018.8
2015-Aug-18 09:00N 33°38' W 052°14'1 0.7 1018.6
2015-Aug-18 08:00N 33°39' W 052°14'   1018.3
Track history (hours):
 
Tides and Currents Weather Stations Pressure Air Temp Water Temp Dewpoint Dewpoint Depression Visibility Wind Speed Wind Dir Waves Ship Positions

Drifting buoy 41936

Last reported at 2015-Aug-28 08:00 UTC. Time now 2015-Aug-28 09:38 UTC.
Position N 32°54' W 053°12'.

Barometer 1015.3 mb

Date/timePositionNaut miles runAvg speedWind from/ knotsBaromVisibWave heightAir tempDewpointWater temp
2015-Aug-28 08:00N 32°54' W 053°12'2 1.9 1015.3
2015-Aug-28 07:00N 32°53' W 053°14'3 3.5 1015.2
2015-Aug-28 06:00N 32°52' W 053°10'1 0.1 1015.5
2015-Aug-28 01:00N 32°52' W 053°09'1 0.5 1016.2
2015-Aug-28 00:00N 32°53' W 053°08'2 2.1 1016.0
2015-Aug-27 23:00N 32°53' W 053°06'1 0.3 1015.2
2015-Aug-27 20:00N 32°54' W 053°06'2 0.8 1014.4
2015-Aug-27 17:00N 32°56' W 053°05'0 0.1 1014.9
2015-Aug-27 16:00N 32°56' W 053°05'1 0.1 1015.1
2015-Aug-27 10:00N 32°57' W 053°05'0 0.0 1014.7
2015-Aug-27 09:00N 32°57' W 053°05'3 0.4 1014.2
2015-Aug-27 02:00N 32°57' W 053°02'1 1.3 1015.0
2015-Aug-27 01:00N 32°57' W 053°00'1 0.7 1015.3
2015-Aug-27 00:00N 32°58' W 053°00'2 0.6 1015.5
2015-Aug-26 20:00N 33°00' W 052°59'1 0.5 1014.7
2015-Aug-26 18:00N 33°01' W 052°59'1 0.8 1015.3
2015-Aug-26 17:00N 33°02' W 052°60'1 0.4 1015.5
2015-Aug-26 14:00N 33°03' W 053°00'0 0.4 1016.1
2015-Aug-26 13:00N 33°03' W 053°00'1 0.2 1015.9
2015-Aug-26 09:00N 33°03' W 053°01'2 0.5 1015.5
2015-Aug-26 05:00N 33°03' W 052°59'3 0.3 1016.5
2015-Aug-25 20:00N 33°06' W 052°58'1 0.2 1017.9
2015-Aug-25 15:00N 33°07' W 052°59'2 0.3 1019.2
2015-Aug-25 09:00N 33°06' W 052°57'1 0.2 1018.5
2015-Aug-25 06:00N 33°06' W 052°57'1 0.7 1018.7
2015-Aug-25 05:00N 33°07' W 052°57'1 0.2 1019.2
2015-Aug-25 01:00N 33°07' W 052°56'0 0.2 1020.2
2015-Aug-25 00:00N 33°07' W 052°56'1 0.3 1020.1
2015-Aug-24 21:00N 33°08' W 052°56'0 0.2 1019.4
2015-Aug-24 19:00N 33°08' W 052°55'1 0.1 1019.3
2015-Aug-24 12:00N 33°07' W 052°54'0 0.0 1020.9
2015-Aug-24 11:00N 33°07' W 052°54'2 0.5 1020.7
2015-Aug-24 08:00N 33°07' W 052°53'3 0.2 1019.8
2015-Aug-23 21:00N 33°08' W 052°49'0 0.3 1020.7
2015-Aug-23 20:00N 33°08' W 052°49'0 0.2 1020.5
2015-Aug-23 19:00N 33°08' W 052°49'1 0.4 1020.5
2015-Aug-23 17:00N 33°08' W 052°48'2 0.7 1020.7
2015-Aug-23 14:00N 33°08' W 052°46'1 0.2 1021.6
2015-Aug-23 10:00N 33°09' W 052°45'1 0.2 1020.9
2015-Aug-23 07:00N 33°09' W 052°44'2 0.3 1019.7
2015-Aug-23 01:00N 33°08' W 052°42'2 2.3 1021.5
2015-Aug-23 00:00N 33°09' W 052°40'1 1.0 1021.4
2015-Aug-22 23:00N 33°09' W 052°41'0 0.2 1020.9
2015-Aug-22 21:00N 33°09' W 052°41'0 0.2 1020.3
2015-Aug-22 20:00N 33°09' W 052°41'1 0.3 1020.2
2015-Aug-22 17:00N 33°09' W 052°39'0 0.0 1020.7
2015-Aug-22 16:00N 33°09' W 052°39'3 0.6 1020.9
2015-Aug-22 11:00N 33°10' W 052°36'1 0.3 1020.4
2015-Aug-22 08:00N 33°10' W 052°35'2 0.3 1019.3
2015-Aug-22 02:00N 33°11' W 052°33'7 0.5 1020.8
2015-Aug-21 13:00N 33°14' W 052°26'1 0.8 1020.4
2015-Aug-21 12:00N 33°13' W 052°26'0 0.2 1020.2
2015-Aug-21 10:00N 33°13' W 052°26'0 0.4 1019.6
2015-Aug-21 09:00N 33°13' W 052°26'1 0.7 1019.3
2015-Aug-21 08:00N 33°14' W 052°25'0 0.2 1018.8
2015-Aug-21 06:00N 33°14' W 052°24'1 1.2 1019.0
2015-Aug-21 05:00N 33°14' W 052°23'1 0.2 1019.2
2015-Aug-21 01:00N 33°14' W 052°22'1 0.7 1019.7
2015-Aug-21 00:00N 33°14' W 052°22'1 1.0 1019.6
2015-Aug-20 23:00N 33°14' W 052°21'1 0.3 1019.4
2015-Aug-20 21:00N 33°14' W 052°20'0 0.0 1018.1
2015-Aug-20 20:00N 33°14' W 052°20'2 1.6 1018.4
2015-Aug-20 19:00N 33°15' W 052°18'2 0.6 1017.7
2015-Aug-20 15:00N 33°17' W 052°16'3 0.6 1018.3
2015-Aug-20 10:00N 33°20' W 052°17'1 0.3 1018.1
2015-Aug-20 08:00N 33°20' W 052°18'1 0.4 1017.3
2015-Aug-20 06:00N 33°19' W 052°17'0 0.0 1017.2
2015-Aug-20 05:00N 33°19' W 052°17'5 0.5 1017.2
2015-Aug-19 20:00N 33°23' W 052°13'3 0.8 1017.2
2015-Aug-19 16:00N 33°26' W 052°13'3 0.5 1018.7
2015-Aug-19 10:00N 33°28' W 052°14'1 0.2 1018.7
2015-Aug-19 06:00N 33°28' W 052°13'9 0.7 1018.3
2015-Aug-18 17:00N 33°37' W 052°12'0 0.0 1018.3
2015-Aug-18 16:00N 33°37' W 052°12'2 0.9 1018.8
2015-Aug-18 14:00N 33°38' W 052°14'0 0.1 1019.2
2015-Aug-18 10:00N 33°38' W 052°14'0 0.0 1018.8
2015-Aug-18 09:00N 33°38' W 052°14'1 0.7 1018.6
2015-Aug-18 08:00N 33°39' W 052°14'   1018.3

Dump ship's entire track history